Time;durP1;ratioP1;P1;durP2;ratioP2;P2;SDS_P1;SDS_P2;PMS_P1;PMS_P2;Temp;Humidity;BMP_temperature;BMP_pressure;BME280_temperature;BME280_humidity;BME280_pressure;Samples;Min_cycle;Max_cycle;Signal;HPM_P1;HPM_P2
2021/05/09 00:01:08;;;;;;;5.72;3.50;;;;;;;12.16;45.40;100396.38;5039272;28;20037;-73
2021/05/09 00:03:33;;;;;;;5.32;3.55;;;;;;;12.11;45.27;100390.28;5042003;28;20044;-73
2021/05/09 00:05:59;;;;;;;5.70;3.95;;;;;;;12.01;45.42;100391.31;5038632;28;20049;-73
2021/05/09 00:08:24;;;;;;;6.43;3.97;;;;;;;11.88;46.98;100400.31;5041535;28;20112;-73
2021/05/09 00:10:50;;;;;;;6.72;4.05;;;;;;;11.81;46.30;100391.53;5038860;28;20099;-73
2021/05/09 00:13:15;;;;;;;6.32;4.28;;;;;;;11.78;46.45;100394.22;5043439;28;20450;-73
2021/05/09 00:15:42;;;;;;;7.20;4.22;;;;;;;11.74;46.99;100396.03;5043547;28;20596;-73
2021/05/09 00:18:07;;;;;;;6.55;4.07;;;;;;;11.74;46.83;100388.13;5044910;28;20025;-72
2021/05/09 00:20:33;;;;;;;5.60;3.85;;;;;;;11.73;47.24;100385.47;5042537;28;20511;-73
2021/05/09 00:22:59;;;;;;;4.88;3.63;;;;;;;11.77;46.92;100382.78;5045103;28;20044;-73
2021/05/09 00:25:24;;;;;;;6.40;4.25;;;;;;;11.84;47.32;100384.47;5042430;28;20124;-73
2021/05/09 00:27:50;;;;;;;6.00;3.53;;;;;;;11.91;46.97;100379.09;5044457;28;20033;-73
2021/05/09 00:30:16;;;;;;;5.78;3.97;;;;;;;11.97;46.79;100379.00;5043634;28;20545;-73
2021/05/09 00:32:43;;;;;;;6.22;3.80;;;;;;;12.04;46.95;100380.69;5042918;28;20040;-73
2021/05/09 00:35:09;;;;;;;6.43;4.03;;;;;;;12.09;47.11;100380.63;5043426;28;20115;-73
2021/05/09 00:37:35;;;;;;;4.88;3.70;;;;;;;12.10;47.05;100380.56;5041840;28;20034;-73
2021/05/09 00:40:00;;;;;;;5.65;3.47;;;;;;;12.10;46.77;100372.63;5037948;28;20083;-74
2021/05/09 00:42:25;;;;;;;4.82;3.13;;;;;;;12.13;47.14;100372.63;5044308;28;20033;-73
2021/05/09 00:44:51;;;;;;;5.82;3.75;;;;;;;12.16;46.58;100364.63;5042694;28;20037;-74
2021/05/09 00:47:16;;;;;;;5.50;4.00;;;;;;;12.04;46.86;100370.09;5043427;28;20036;-74
2021/05/09 00:49:42;;;;;;;4.97;3.33;;;;;;;12.04;47.18;100372.75;5040090;28;20077;-73
2021/05/09 00:52:09;;;;;;;6.97;3.65;;;;;;;12.02;46.61;100361.28;5038615;28;20033;-74
2021/05/09 00:54:43;;;;;;;5.28;3.03;;;;;;;12.01;47.33;100363.06;5044862;28;20033;-73
2021/05/09 00:57:10;;;;;;;5.68;3.50;;;;;;;12.07;46.05;100365.63;5039838;28;20041;-73
2021/05/09 00:59:37;;;;;;;4.82;3.50;;;;;;;12.14;46.37;100369.06;5041812;28;20033;-73
2021/05/09 01:02:02;;;;;;;7.30;3.78;;;;;;;12.12;47.47;100364.69;5043527;28;20040;-73
2021/05/09 01:04:28;;;;;;;5.35;3.53;;;;;;;12.02;48.34;100374.53;5041766;28;20120;-73
2021/05/09 01:06:54;;;;;;;5.65;3.75;;;;;;;12.05;48.00;100371.81;5048510;28;20037;-74
2021/05/09 01:09:19;;;;;;;6.55;3.33;;;;;;;12.06;47.82;100378.88;5044365;28;20029;-73
2021/05/09 01:11:45;;;;;;;5.57;3.60;;;;;;;12.08;48.52;100371.81;5032418;28;20037;-74
2021/05/09 01:14:11;;;;;;;5.45;3.05;;;;;;;12.12;46.98;100368.19;5042112;28;20029;-73
2021/05/09 01:16:37;;;;;;;7.15;3.22;;;;;;;12.16;47.00;100372.56;5042916;28;20026;-74
2021/05/09 01:19:04;;;;;;;5.15;2.95;;;;;;;12.19;47.41;100367.22;5042268;28;20037;-73
2021/05/09 01:21:29;;;;;;;4.78;2.88;;;;;;;12.30;47.52;100366.19;5044010;28;20029;-73
2021/05/09 01:23:55;;;;;;;5.88;3.20;;;;;;;12.31;49.15;100363.50;5041813;28;20120;-73
2021/05/09 01:26:20;;;;;;;5.90;2.70;;;;;;;12.27;47.54;100349.44;5041193;28;20033;-74
2021/05/09 01:28:45;;;;;;;5.50;2.70;;;;;;;12.35;47.40;100348.47;5042089;28;20075;-73
2021/05/09 01:31:11;;;;;;;5.38;3.10;;;;;;;12.45;47.33;100347.41;5041899;28;20041;-73
2021/05/09 01:33:37;;;;;;;4.57;2.85;;;;;;;12.43;47.93;100354.50;5042147;28;20032;-73
2021/05/09 01:36:03;;;;;;;4.82;2.90;;;;;;;12.40;47.61;100349.25;5034308;28;20643;-73
2021/05/09 01:38:29;;;;;;;5.07;2.80;;;;;;;12.41;48.75;100348.34;5056469;28;20044;-73
2021/05/09 01:40:54;;;;;;;3.78;2.20;;;;;;;12.34;49.31;100347.59;5044002;28;20037;-73
2021/05/09 01:43:20;;;;;;;5.35;2.72;;;;;;;12.22;48.99;100338.06;5040545;28;20037;-74
2021/05/09 01:45:47;;;;;;;5.25;2.60;;;;;;;12.05;48.48;100342.72;5041786;28;20674;-73
2021/05/09 01:48:13;;;;;;;6.20;2.80;;;;;;;11.88;48.22;100339.47;5032787;28;20037;-73
2021/05/09 01:50:39;;;;;;;5.97;3.08;;;;;;;11.69;48.86;100342.34;5040600;28;20028;-73
2021/05/09 01:53:04;;;;;;;5.43;3.42;;;;;;;11.50;49.71;100335.56;5050187;28;20032;-73
2021/05/09 01:55:31;;;;;;;5.18;2.63;;;;;;;11.34;49.34;100340.16;5039346;28;20025;-73
2021/05/09 01:58:19;;;;;;;5.25;2.67;;;;;;;11.22;48.57;100335.03;5042185;28;20520;-73
2021/05/09 02:01:04;;;;;;;4.25;2.38;;;;;;;11.09;49.54;100335.19;5041267;28;20128;-73
2021/05/09 02:03:39;;;;;;;4.65;2.65;;;;;;;10.94;50.45;100333.56;5051948;28;20087;-73
2021/05/09 02:06:05;;;;;;;5.10;2.53;;;;;;;10.80;49.39;100331.97;5042777;28;20107;-73
2021/05/09 02:08:31;;;;;;;5.63;2.47;;;;;;;10.66;49.97;100338.28;5040024;28;20025;-73
2021/05/09 02:11:02;;;;;;;6.63;2.50;;;;;;;10.53;50.37;100334.88;5039550;28;20029;-74
2021/05/09 02:13:29;;;;;;;5.90;2.67;;;;;;;10.39;50.54;100333.25;5043004;28;20750;-73
2021/05/09 02:16:06;;;;;;;5.18;2.53;;;;;;;10.24;51.23;100331.56;5037805;28;20432;-73
2021/05/09 02:18:31;;;;;;;5.90;3.20;;;;;;;10.04;51.50;100337.88;5040077;28;20159;-73
2021/05/09 02:20:57;;;;;;;5.85;2.92;;;;;;;9.93;51.25;100330.91;5049995;28;20049;-73
2021/05/09 02:23:23;;;;;;;4.07;2.70;;;;;;;9.92;51.34;100337.06;5039818;28;20030;-73
2021/05/09 02:25:48;;;;;;;5.80;3.00;;;;;;;9.87;52.56;100323.91;5047098;28;20029;-73
2021/05/09 02:28:16;;;;;;;4.43;2.38;;;;;;;9.78;53.18;100324.00;5041307;28;20037;-73
2021/05/09 02:30:43;;;;;;;5.90;2.90;;;;;;;9.69;53.96;100321.41;5048698;28;20033;-73
2021/05/09 02:33:12;;;;;;;5.85;2.67;;;;;;;9.60;53.80;100322.34;5040799;28;20061;-73
2021/05/09 02:35:39;;;;;;;6.47;2.65;;;;;;;9.51;54.39;100325.91;5046244;28;20036;-73
2021/05/09 02:38:05;;;;;;;4.88;3.00;;;;;;;9.47;54.81;100323.28;5043071;28;20125;-73
2021/05/09 02:40:30;;;;;;;7.07;2.95;;;;;;;9.35;55.61;100316.28;5030717;28;20091;-73
2021/05/09 02:42:56;;;;;;;6.40;3.10;;;;;;;9.28;55.37;100318.09;5042040;28;20640;-73
2021/05/09 02:45:21;;;;;;;5.53;2.90;;;;;;;9.24;56.05;100324.25;5048311;28;20037;-73
2021/05/09 02:47:47;;;;;;;6.22;3.15;;;;;;;9.19;57.39;100320.75;5041112;28;20103;-73
2021/05/09 02:50:17;;;;;;;5.22;3.20;;;;;;;9.12;57.18;100316.41;5033134;28;20040;-73
2021/05/09 02:52:42;;;;;;;4.75;2.83;;;;;;;9.06;56.23;100319.91;5037947;28;20033;-73
2021/05/09 02:55:10;;;;;;;6.35;2.92;;;;;;;9.09;56.70;100313.78;5035782;28;20500;-73
2021/05/09 02:57:36;;;;;;;5.57;3.03;;;;;;;9.06;56.74;100313.78;5040711;28;20062;-73
2021/05/09 03:00:04;;;;;;;4.70;2.42;;;;;;;8.98;57.69;100312.03;5031737;28;20527;-73
2021/05/09 03:02:30;;;;;;;6.50;3.20;;;;;;;8.90;57.54;100318.22;5055819;28;20399;-73
2021/05/09 03:04:56;;;;;;;4.75;2.85;;;;;;;8.85;57.59;100320.84;5033081;28;20033;-73
2021/05/09 03:07:22;;;;;;;4.95;3.08;;;;;;;8.77;59.07;100320.00;5037945;28;20487;-73
2021/05/09 03:09:47;;;;;;;4.60;2.80;;;;;;;8.65;58.74;100320.91;5042642;28;20033;-73
2021/05/09 03:12:13;;;;;;;5.43;2.90;;;;;;;8.59;58.55;100331.44;5038158;28;20033;-73
2021/05/09 03:14:39;;;;;;;7.05;3.25;;;;;;;8.46;59.57;100327.06;5041515;28;20561;-73
2021/05/09 03:17:05;;;;;;;4.45;2.90;;;;;;;8.40;59.36;100327.06;5040990;28;20112;-73
2021/05/09 03:19:30;;;;;;;5.05;3.00;;;;;;;8.33;59.76;100326.16;5040237;28;20041;-73
2021/05/09 03:21:55;;;;;;;5.60;3.00;;;;;;;8.33;59.54;100332.31;5041633;28;20036;-73
2021/05/09 03:24:21;;;;;;;7.13;3.85;;;;;;;8.37;59.70;100337.56;5039597;28;20041;-73
2021/05/09 03:26:46;;;;;;;5.10;3.10;;;;;;;8.35;59.39;100333.16;5042561;28;20032;-73
2021/05/09 03:29:11;;;;;;;5.20;2.92;;;;;;;8.34;59.46;100331.44;5039335;28;20503;-73
2021/05/09 03:31:37;;;;;;;8.35;3.10;;;;;;;8.37;59.53;100338.44;5040044;28;20481;-73
2021/05/09 03:34:02;;;;;;;5.10;2.67;;;;;;;8.38;58.86;100341.94;5029730;28;20033;-73
2021/05/09 03:36:28;;;;;;;5.00;2.53;;;;;;;8.38;59.52;100337.56;5040845;28;20033;-73
2021/05/09 03:38:54;;;;;;;5.18;2.88;;;;;;;8.32;59.84;100341.06;5040024;28;20542;-73
2021/05/09 03:41:21;;;;;;;5.65;2.70;;;;;;;8.32;59.13;100343.69;5040538;28;20064;-73
2021/05/09 03:43:48;;;;;;;5.30;2.95;;;;;;;8.37;59.72;100327.06;5054337;28;20029;-73
2021/05/09 03:46:13;;;;;;;6.43;3.10;;;;;;;8.39;59.51;100335.81;5042689;28;20045;-73
2021/05/09 03:48:38;;;;;;;6.00;3.13;;;;;;;8.42;59.64;100327.97;5043675;28;20088;-73
2021/05/09 03:51:04;;;;;;;6.57;3.20;;;;;;;8.46;59.72;100327.06;5044707;28;20070;-73
2021/05/09 03:53:30;;;;;;;6.30;2.83;;;;;;;8.49;59.06;100333.22;5044337;28;20045;-73
2021/05/09 03:55:57;;;;;;;7.15;3.08;;;;;;;8.51;59.61;100325.31;5058962;28;20033;-73
2021/05/09 03:58:22;;;;;;;6.55;3.47;;;;;;;8.53;59.64;100328.81;5045844;28;20025;-73
2021/05/09 04:00:47;;;;;;;4.75;3.00;;;;;;;8.55;60.02;100325.31;5042445;28;20155;-73
2021/05/09 04:03:18;;;;;;;4.95;2.63;;;;;;;8.56;59.66;100323.56;5045160;28;20094;-73
2021/05/09 04:05:48;;;;;;;4.65;2.72;;;;;;;8.63;59.27;100330.56;5044067;28;20033;-73
2021/05/09 04:08:14;;;;;;;7.00;3.30;;;;;;;8.68;58.89;100318.28;5058343;28;20484;-73
2021/05/09 04:10:39;;;;;;;5.57;2.90;;;;;;;8.75;59.71;100320.03;5045559;28;20045;-73
2021/05/09 04:13:04;;;;;;;6.53;3.58;;;;;;;8.80;60.28;100327.03;5041685;28;20073;-73
2021/05/09 04:15:30;;;;;;;5.95;3.40;;;;;;;8.80;60.96;100322.63;5045331;28;20033;-73
2021/05/09 04:17:55;;;;;;;6.25;3.00;;;;;;;8.86;60.91;100324.41;5042950;28;20041;-73
2021/05/09 04:20:20;;;;;;;5.80;2.97;;;;;;;8.92;60.51;100325.25;5044379;28;20029;-73
2021/05/09 04:22:46;;;;;;;6.22;3.13;;;;;;;8.99;60.96;100319.09;5043654;28;20037;-73
2021/05/09 04:25:11;;;;;;;5.32;2.80;;;;;;;9.06;61.46;100326.94;5043201;28;20043;-73
2021/05/09 04:27:37;;;;;;;5.78;2.55;;;;;;;9.17;60.18;100315.50;5044776;28;20029;-73
2021/05/09 04:30:02;;;;;;;5.75;3.05;;;;;;;9.30;59.60;100315.44;5042032;28;20094;-73
2021/05/09 04:32:28;;;;;;;4.70;2.60;;;;;;;9.42;59.73;100313.63;5044986;28;20037;-73
2021/05/09 04:34:53;;;;;;;5.60;3.35;;;;;;;9.56;59.57;100321.50;5042357;28;20125;-73
2021/05/09 04:37:18;;;;;;;5.20;2.92;;;;;;;9.69;59.26;100324.03;5044361;28;20048;-73
2021/05/09 04:39:44;;;;;;;4.90;2.70;;;;;;;9.79;58.88;100328.38;5043535;28;20083;-73
2021/05/09 04:42:09;;;;;;;5.15;2.78;;;;;;;9.88;58.66;100325.69;5042891;28;20503;-73
2021/05/09 04:44:34;;;;;;;6.80;3.03;;;;;;;9.97;57.97;100325.59;5044097;28;20467;-73
2021/05/09 04:47:00;;;;;;;6.80;3.17;;;;;;;10.07;58.23;100323.78;5042121;28;20029;-73
2021/05/09 04:49:26;;;;;;;4.43;2.38;;;;;;;10.16;57.88;100322.84;5044882;28;20511;-73
2021/05/09 04:51:52;;;;;;;5.40;2.53;;;;;;;10.24;57.37;100315.72;5037724;28;20057;-73
2021/05/09 04:54:17;;;;;;;4.75;2.63;;;;;;;10.33;57.29;100317.47;5044404;28;20075;-73
2021/05/09 04:56:42;;;;;;;4.28;2.95;;;;;;;10.39;58.06;100317.41;5042219;28;20458;-73
2021/05/09 04:59:07;;;;;;;4.57;2.72;;;;;;;10.47;58.30;100321.72;5043192;28;20132;-73
2021/05/09 05:01:33;;;;;;;5.25;2.72;;;;;;;10.61;58.83;100315.44;5043536;28;20033;-74
2021/05/09 05:03:58;;;;;;;4.72;2.80;;;;;;;10.79;57.50;100317.88;5040856;28;20029;-73
2021/05/09 05:06:24;;;;;;;5.15;2.53;;;;;;;11.00;56.50;100319.41;5044506;28;20033;-73
2021/05/09 05:08:49;;;;;;;6.75;2.38;;;;;;;11.20;55.57;100311.28;5039746;28;20037;-73
2021/05/09 05:11:14;;;;;;;4.60;2.75;;;;;;;11.38;54.70;100312.81;5044255;28;20049;-73
2021/05/09 05:13:40;;;;;;;3.63;2.00;;;;;;;11.54;54.39;100316.13;5041673;28;20577;-73
2021/05/09 05:16:06;;;;;;;3.78;2.28;;;;;;;11.76;53.84;100314.94;5043274;28;20410;-73
2021/05/09 05:18:32;;;;;;;6.47;2.67;;;;;;;11.96;52.89;100314.66;5043055;28;20113;-73
2021/05/09 05:21:07;;;;;;;5.28;2.70;;;;;;;12.16;51.90;100311.72;5042323;28;20486;-73
2021/05/09 05:23:35;;;;;;;4.63;2.10;;;;;;;12.43;51.54;100314.78;5037657;28;20395;-73
2021/05/09 05:26:00;;;;;;;3.80;1.90;;;;;;;12.69;50.74;100309.03;5025378;28;20033;-74
2021/05/09 05:28:26;;;;;;;4.00;2.25;;;;;;;12.82;48.70;100317.63;5042459;28;20033;-74
2021/05/09 05:30:52;;;;;;;4.95;2.25;;;;;;;13.03;48.64;100311.91;5042116;28;20041;-74
2021/05/09 05:33:32;;;;;;;4.35;2.10;;;;;;;13.27;47.93;100315.88;5043399;28;20045;-73
2021/05/09 05:36:00;;;;;;;6.50;2.80;;;;;;;13.49;48.26;100318.97;5039916;28;20123;-73
2021/05/09 05:38:25;;;;;;;3.80;2.00;;;;;;;13.68;47.66;100321.22;5041902;28;20130;-74
2021/05/09 05:40:54;;;;;;;4.20;2.00;;;;;;;13.84;47.16;100329.69;5043411;28;20555;-73
2021/05/09 05:43:20;;;;;;;3.53;2.03;;;;;;;13.97;47.14;100329.38;5040199;28;20415;-73
2021/05/09 05:45:46;;;;;;;5.68;2.00;;;;;;;13.99;46.06;100319.59;5058803;28;20486;-73
2021/05/09 05:48:11;;;;;;;4.35;1.88;;;;;;;13.98;46.52;100324.94;5041452;28;20118;-74
2021/05/09 05:50:38;;;;;;;3.97;2.00;;;;;;;13.94;47.09;100326.78;5042385;28;20633;-74
2021/05/09 05:53:03;;;;;;;4.47;2.35;;;;;;;13.95;46.65;100333.84;5042160;28;20410;-73
2021/05/09 05:55:29;;;;;;;4.00;2.33;;;;;;;13.97;47.42;100334.69;5041141;28;20124;-73
2021/05/09 05:57:54;;;;;;;4.50;2.30;;;;;;;13.92;47.10;100328.59;5043530;28;20061;-73
2021/05/09 06:00:20;;;;;;;4.15;2.00;;;;;;;13.93;47.27;100337.44;5040129;28;20061;-74
2021/05/09 06:02:45;;;;;;;4.05;2.22;;;;;;;13.95;46.96;100333.84;5041775;28;20063;-74
2021/05/09 06:05:11;;;;;;;4.85;2.22;;;;;;;13.91;46.38;100340.13;5040985;28;20056;-73
2021/05/09 06:07:36;;;;;;;5.18;2.17;;;;;;;13.89;46.23;100339.28;5042171;28;20399;-74
2021/05/09 06:10:03;;;;;;;5.30;2.13;;;;;;;13.93;46.60;100340.09;5048641;28;20361;-73
2021/05/09 06:12:29;;;;;;;4.95;2.08;;;;;;;14.08;46.50;100336.22;5040494;28;20036;-73
2021/05/09 06:14:54;;;;;;;6.88;2.50;;;;;;;14.16;46.44;100332.47;5030544;28;20037;-73
2021/05/09 06:17:19;;;;;;;4.07;2.05;;;;;;;14.24;46.33;100334.94;5043380;28;20060;-73
2021/05/09 06:19:45;;;;;;;5.07;2.25;;;;;;;14.38;46.78;100330.16;5047609;28;20033;-74
2021/05/09 06:22:10;;;;;;;4.35;2.20;;;;;;;14.40;46.41;100336.28;5059847;23;20071;-82
2021/05/09 06:24:35;;;;;;;4.65;2.45;;;;;;;14.38;46.00;100340.78;5063482;28;20045;-81
2021/05/09 06:27:01;;;;;;;3.75;2.08;;;;;;;14.44;46.68;100335.31;5067476;28;20082;-81
2021/05/09 06:29:26;;;;;;;3.50;1.52;;;;;;;14.44;46.46;100332.66;5065682;28;20130;-81
2021/05/09 06:31:51;;;;;;;3.78;1.80;;;;;;;14.51;46.91;100332.50;5064657;28;20877;-81
2021/05/09 06:34:17;;;;;;;5.32;2.10;;;;;;;14.59;46.74;100339.41;5065880;28;20032;-81
2021/05/09 06:36:42;;;;;;;5.10;2.20;;;;;;;14.69;46.39;100332.03;5064600;28;20105;-81
2021/05/09 06:39:07;;;;;;;6.10;2.60;;;;;;;14.81;46.25;100334.38;5065037;28;20032;-80
2021/05/09 06:41:35;;;;;;;5.07;2.28;;;;;;;14.90;45.61;100331.47;5064051;28;20078;-80
2021/05/09 06:44:03;;;;;;;4.55;2.05;;;;;;;15.04;46.04;100330.25;5064746;28;20047;-80
2021/05/09 06:46:28;;;;;;;5.25;2.15;;;;;;;15.12;45.69;100331.78;5064316;28;20043;-81
2021/05/09 06:48:53;;;;;;;3.70;1.92;;;;;;;15.22;45.53;100318.19;5065829;28;20032;-80
2021/05/09 06:51:20;;;;;;;4.47;1.92;;;;;;;15.35;44.99;100319.59;5053897;28;20138;-81
2021/05/09 06:53:46;;;;;;;5.40;1.77;;;;;;;15.35;44.31;100314.25;5064616;28;20032;-81
2021/05/09 06:56:11;;;;;;;3.95;1.58;;;;;;;15.41;44.82;100318.56;5063777;28;20111;-80
2021/05/09 06:58:36;;;;;;;3.65;1.92;;;;;;;15.47;45.24;100318.38;5064728;28;20054;-81
2021/05/09 07:01:02;;;;;;;4.25;2.00;;;;;;;15.49;44.37;100316.53;5063216;28;20601;-82
2021/05/09 07:03:27;;;;;;;4.60;1.88;;;;;;;15.60;44.26;100309.09;5065488;28;20036;-81
2021/05/09 07:05:53;;;;;;;5.30;1.80;;;;;;;15.70;44.28;100305.28;5061519;28;20116;-80
2021/05/09 07:08:19;;;;;;;4.57;1.65;;;;;;;15.77;44.46;100305.94;5066012;28;20071;-80
2021/05/09 07:10:44;;;;;;;4.20;2.10;;;;;;;15.80;43.94;100302.31;5062470;28;20108;-81
2021/05/09 07:13:09;;;;;;;3.75;1.60;;;;;;;15.96;44.01;100300.94;5065864;28;20613;-81
2021/05/09 07:15:37;;;;;;;3.55;1.90;;;;;;;16.02;43.21;100299.88;5078502;28;20036;-81
2021/05/09 07:18:10;;;;;;;3.35;1.58;;;;;;;16.06;42.96;100291.75;5065645;28;20039;-81
2021/05/09 07:20:39;;;;;;;5.82;2.03;;;;;;;16.11;43.00;100288.91;5079085;28;20048;-81
2021/05/09 07:23:06;;;;;;;4.25;1.65;;;;;;;16.20;42.73;100294.81;5084164;28;20033;-82
2021/05/09 07:25:31;;;;;;;4.35;1.63;;;;;;;16.33;42.33;100294.41;5067848;28;20039;-81
2021/05/09 07:28:14;;;;;;;3.05;1.50;;;;;;;16.49;42.43;100284.09;5069860;28;20119;-81
2021/05/09 07:30:41;;;;;;;5.43;1.50;;;;;;;16.70;42.79;100280.69;5068458;28;20127;-81
2021/05/09 07:33:10;;;;;;;4.03;1.80;;;;;;;16.84;42.98;100274.88;5067173;28;20033;-81
2021/05/09 07:35:36;;;;;;;2.97;1.45;;;;;;;17.03;42.36;100269.78;5068581;28;20033;-81
2021/05/09 07:38:03;;;;;;;4.55;1.50;;;;;;;17.01;41.21;100271.63;5066340;28;20111;-81
2021/05/09 07:40:28;;;;;;;3.97;1.60;;;;;;;17.12;41.78;100269.41;5067025;28;20112;-81
2021/05/09 07:42:54;;;;;;;3.90;1.75;;;;;;;17.25;42.00;100270.69;5066720;28;20493;-81
2021/05/09 07:45:21;;;;;;;4.55;1.65;;;;;;;17.28;41.18;100265.22;5066500;28;20049;-81
2021/05/09 07:47:47;;;;;;;3.55;1.67;;;;;;;17.32;41.54;100271.34;5067560;28;20051;-81
2021/05/09 07:50:14;;;;;;;3.72;1.65;;;;;;;17.38;41.48;100270.22;5066554;28;20037;-80
2021/05/09 07:52:42;;;;;;;2.75;1.42;;;;;;;17.51;42.65;100261.69;5083769;28;20488;-81
2021/05/09 07:55:08;;;;;;;3.17;1.75;;;;;;;17.66;41.16;100270.03;5084141;28;20043;-81
2021/05/09 07:57:33;;;;;;;2.90;1.42;;;;;;;17.75;41.06;100267.84;5067058;28;20036;-81
2021/05/09 07:59:59;;;;;;;5.95;1.85;;;;;;;17.86;40.95;100264.78;5067523;28;20071;-81
2021/05/09 08:02:24;;;;;;;4.03;1.70;;;;;;;17.95;40.64;100267.09;5066837;28;20041;-81
2021/05/09 08:04:50;;;;;;;3.00;1.30;;;;;;;18.00;40.67;100263.34;5068203;28;20082;-81
2021/05/09 08:07:15;;;;;;;3.33;1.38;;;;;;;18.11;41.10;100250.44;5067020;28;20080;-81
2021/05/09 08:09:40;;;;;;;3.53;1.55;;;;;;;18.18;40.24;100236.75;5069652;28;20040;-82
2021/05/09 08:12:06;;;;;;;3.83;1.70;;;;;;;18.28;40.79;100242.56;5052329;28;20083;-81
2021/05/09 08:14:32;;;;;;;3.80;1.58;;;;;;;18.34;40.32;100236.13;5076488;28;20115;-81
2021/05/09 08:16:57;;;;;;;3.63;1.92;;;;;;;18.42;39.96;100238.44;5069671;28;20028;-81
2021/05/09 08:19:22;;;;;;;2.85;1.58;;;;;;;18.50;40.77;100234.50;5065808;28;20041;-81
2021/05/09 08:21:50;;;;;;;3.15;1.50;;;;;;;18.62;41.07;100236.63;5068594;28;20037;-80
2021/05/09 08:24:15;;;;;;;3.72;1.13;;;;;;;18.68;39.20;100227.50;5065194;28;20033;-81
2021/05/09 08:26:41;;;;;;;4.85;1.48;;;;;;;18.78;40.10;100234.16;5067739;28;20047;-81
2021/05/09 08:29:07;;;;;;;2.72;0.93;;;;;;;18.89;39.24;100232.81;5065862;28;20041;-79
2021/05/09 08:31:32;;;;;;;3.38;1.33;;;;;;;19.07;39.91;100234.66;5056079;28;20033;-81
2021/05/09 08:33:58;;;;;;;3.60;1.30;;;;;;;19.22;39.57;100233.09;5068964;28;20211;-81
2021/05/09 08:36:24;;;;;;;3.60;1.58;;;;;;;19.17;37.72;100225.25;5066622;28;20561;-81
2021/05/09 08:38:50;;;;;;;2.58;1.10;;;;;;;19.36;38.78;100236.00;5065851;28;20064;-81
2021/05/09 08:41:15;;;;;;;2.10;1.00;;;;;;;19.54;38.59;100231.53;5081762;28;20060;-81
2021/05/09 08:43:42;;;;;;;3.45;1.45;;;;;;;19.67;38.27;100222.00;5065996;28;20541;-82
2021/05/09 08:46:07;;;;;;;3.33;1.10;;;;;;;19.79;38.14;100219.69;5067490;28;20044;-81
2021/05/09 08:48:33;;;;;;;2.67;1.15;;;;;;;19.89;38.50;100213.81;5066142;28;20170;-81
2021/05/09 08:51:02;;;;;;;2.55;1.10;;;;;;;19.92;37.82;100210.13;5067624;28;20032;-80
2021/05/09 08:53:27;;;;;;;3.38;0.90;;;;;;;20.00;37.60;100207.91;5064966;28;20087;-81
2021/05/09 08:55:53;;;;;;;3.38;1.20;;;;;;;20.04;37.57;100204.16;5084577;28;20037;-81
2021/05/09 08:58:18;;;;;;;4.15;1.20;;;;;;;20.02;36.74;100206.03;5069350;28;20024;-81
2021/05/09 09:00:43;;;;;;;2.42;0.90;;;;;;;20.14;38.15;100197.34;5067935;28;20059;-81
2021/05/09 09:03:13;;;;;;;2.60;1.00;;;;;;;20.20;36.04;100206.03;5064901;28;20049;-82
2021/05/09 09:05:46;;;;;;;2.28;0.90;;;;;;;20.24;35.58;100200.44;5083595;28;20032;-82
2021/05/09 09:08:15;;;;;;;2.75;1.10;;;;;;;20.41;36.36;100202.25;5071217;28;20041;-82
2021/05/09 09:10:47;;;;;;;2.90;0.90;;;;;;;20.52;36.21;100204.38;5066914;28;20044;-81
2021/05/09 09:13:21;;;;;;;1.85;0.82;;;;;;;20.68;35.43;100199.09;5064919;28;20105;-80
2021/05/09 09:15:51;;;;;;;3.85;1.00;;;;;;;20.77;36.51;100190.53;5067338;28;20032;-82
2021/05/09 09:18:44;;;;;;;3.05;1.02;;;;;;;20.86;35.41;100190.06;5080220;28;20040;-82
2021/05/09 09:21:24;;;;;;;2.15;0.95;;;;;;;20.94;34.05;100179.78;5067244;28;20098;-81
2021/05/09 09:23:54;;;;;;;1.67;0.70;;;;;;;21.10;35.45;100189.66;5065825;28;20059;-82
2021/05/09 09:26:44;;;;;;;2.20;0.80;;;;;;;21.19;33.32;100179.28;5082631;28;20043;-81
2021/05/09 09:29:36;;;;;;;4.22;0.90;;;;;;;21.26;33.82;100177.13;5069255;28;20036;-81
2021/05/09 09:32:03;;;;;;;4.05;0.90;;;;;;;21.34;33.99;100180.25;5063948;28;20041;-82
2021/05/09 09:34:39;;;;;;;2.75;1.10;;;;;;;21.41;33.41;100181.66;5067775;28;20032;-82
2021/05/09 09:37:05;;;;;;;5.00;0.77;;;;;;;21.45;33.16;100171.59;5068084;28;20039;-81
2021/05/09 09:39:54;;;;;;;2.50;1.13;;;;;;;21.57;33.72;100162.84;5071721;28;20032;-82
2021/05/09 09:42:40;;;;;;;2.70;0.98;;;;;;;21.64;32.88;100169.63;5063864;28;20064;-82
2021/05/09 09:45:12;;;;;;;2.38;0.93;;;;;;;21.72;32.84;100169.16;5067641;28;20040;-82
2021/05/09 09:47:54;;;;;;;2.72;0.90;;;;;;;21.84;33.26;100164.88;5066532;28;20044;-81
2021/05/09 09:50:40;;;;;;;1.75;0.70;;;;;;;21.97;33.70;100156.97;5081130;28;20033;-82
2021/05/09 09:53:26;;;;;;;1.85;0.85;;;;;;;21.98;32.73;100159.59;5066313;28;20052;-82
2021/05/09 09:56:08;;;;;;;1.83;0.73;;;;;;;22.14;31.94;100154.16;5066257;28;20126;-82
2021/05/09 09:58:33;;;;;;;;;;;;;;;;;;5070510;28;20040;-81
2021/05/09 10:00:58;;;;;;;1.50;0.80;;;;;;;22.30;32.91;100146.91;5078867;28;19916;-81
2021/05/09 10:03:24;;;;;;;3.40;0.90;;;;;;;22.53;32.52;100139.25;5066644;28;20103;-81
2021/05/09 10:05:50;;;;;;;3.80;0.82;;;;;;;22.63;31.62;100132.34;5063919;28;20387;-82
2021/05/09 10:08:15;;;;;;;1.77;0.85;;;;;;;22.85;32.30;100123.78;5066168;28;20458;-80
2021/05/09 10:10:41;;;;;;;2.28;0.70;;;;;;;22.91;30.73;100119.84;5064140;28;20044;-81
2021/05/09 10:13:07;;;;;;;1.27;0.63;;;;;;;23.01;30.82;100131.78;5064495;28;20045;-81
2021/05/09 10:15:32;;;;;;;2.08;0.80;;;;;;;23.10;30.89;100128.47;5063409;28;20040;-80
2021/05/09 10:17:58;;;;;;;1.88;0.80;;;;;;;23.23;30.41;100130.38;5063692;28;20040;-82
2021/05/09 10:20:23;;;;;;;1.35;0.70;;;;;;;23.25;31.77;100118.53;5064910;28;20036;-81
2021/05/09 10:23:05;;;;;;;2.00;0.90;;;;;;;23.40;31.36;100120.25;5063980;28;20475;-81
2021/05/09 10:25:41;;;;;;;;;;;;;;;23.45;29.46;100109.16;5063587;28;20036;-80
2021/05/09 10:28:10;;;;;;;4.35;1.08;;;;;;;23.43;30.49;100116.47;5067209;28;19916;-81
2021/05/09 10:30:46;;;;;;;2.58;1.10;;;;;;;23.42;30.54;100117.41;5062460;28;20041;-82
2021/05/09 10:33:43;;;;;;;1.90;1.00;;;;;;;23.60;30.60;100112.66;5079292;28;20101;-80
2021/05/09 10:36:14;;;;;;;2.15;0.80;;;;;;;23.62;29.53;100108.88;5070050;28;20104;-82
2021/05/09 10:39:14;;;;;;;2.53;0.85;;;;;;;23.74;29.49;100109.09;5065719;28;20048;-82
2021/05/09 10:41:54;;;;;;;1.77;0.65;;;;;;;23.71;29.23;100106.53;5063359;28;20135;-80
2021/05/09 10:44:42;;;;;;;2.03;0.80;;;;;;;23.81;29.44;100113.06;5065397;28;20060;-80
2021/05/09 10:47:14;;;;;;;3.03;0.85;;;;;;;23.80;29.83;100104.13;5062143;28;20499;-80
2021/05/09 10:50:26;;;;;;;2.83;1.00;;;;;;;23.79;28.90;100115.03;5066772;28;20036;-81
2021/05/09 10:52:53;;;;;;;1.77;0.82;;;;;;;23.87;29.53;100106.38;5068708;28;20402;-81
2021/05/09 10:55:45;;;;;;;3.65;1.30;;;;;;;24.03;29.95;100099.00;5064011;28;20064;-81
2021/05/09 10:58:13;;;;;;;1.70;0.88;;;;;;;24.22;29.84;100094.03;5054369;28;20028;-81
2021/05/09 11:01:01;;;;;;;1.73;0.85;;;;;;;24.44;29.08;100097.91;5079873;28;20033;-81
2021/05/09 11:03:36;;;;;;;2.33;1.10;;;;;;;24.55;29.39;100089.09;5061960;28;20215;-80
2021/05/09 11:06:11;;;;;;;3.17;1.15;;;;;;;24.73;29.14;100097.72;5079573;28;20418;-80
2021/05/09 11:08:43;;;;;;;2.33;0.93;;;;;;;24.91;28.52;100088.28;5078366;28;20040;-80
2021/05/09 11:11:19;;;;;;;3.55;0.80;;;;;;;24.85;28.70;100086.88;5064002;28;20506;-81
2021/05/09 11:13:56;;;;;;;2.83;0.77;;;;;;;24.84;28.38;100092.41;5062708;28;20033;-81
2021/05/09 11:16:22;;;;;;;3.10;1.00;;;;;;;24.92;29.03;100085.47;5078884;28;20544;-81
2021/05/09 11:19:06;;;;;;;1.80;0.85;;;;;;;25.09;28.44;100086.06;5063602;28;20430;-81
2021/05/09 11:21:34;;;;;;;1.98;0.65;;;;;;;25.28;29.07;100070.28;5077654;28;20045;-81
2021/05/09 11:24:02;;;;;;;2.53;1.05;;;;;;;25.31;28.93;100074.59;5076950;28;20033;-81
2021/05/09 11:26:29;;;;;;;3.70;1.00;;;;;;;25.39;28.34;100068.56;5062926;28;20056;-81
2021/05/09 11:29:08;;;;;;;3.17;0.98;;;;;;;25.41;28.16;100066.63;5061945;28;20083;-81
2021/05/09 11:31:35;;;;;;;3.95;0.88;;;;;;;25.49;28.39;100066.91;5065249;28;20043;-81
2021/05/09 11:34:01;;;;;;;2.72;1.20;;;;;;;25.65;28.42;100063.91;5068807;28;20131;-80